createdAt,value
2023-04-19T00:03:19.081Z,100628.48
2023-04-19T00:07:05.318Z,100630.45
2023-04-19T00:10:51.577Z,100626.08
2023-04-19T00:14:37.870Z,100628.45
2023-04-19T00:18:24.384Z,100624.04
2023-04-19T00:22:16.848Z,100616.73
2023-04-19T00:26:16.954Z,100614.02
2023-04-19T00:30:21.483Z,100610.45
2023-04-19T00:34:19.820Z,100601.90
2023-04-19T00:38:21.334Z,100606.02
2023-04-19T00:42:24.203Z,100607.36
2023-04-19T00:46:24.261Z,100602.89
2023-04-19T00:50:27.271Z,100598.57
2023-04-19T00:54:26.237Z,100596.66
2023-04-19T00:58:28.952Z,100590.41
2023-04-19T01:02:27.422Z,100586.48
2023-04-19T01:06:30.341Z,100581.70
2023-04-19T01:10:30.329Z,100581.04
2023-04-19T01:14:32.710Z,100584.13
2023-04-19T01:18:32.387Z,100585.73
2023-04-19T01:22:35.281Z,100583.48
2023-04-19T01:26:35.548Z,100581.17
2023-04-19T01:30:38.770Z,100578.18
2023-04-19T01:34:38.416Z,100576.13
2023-04-19T01:38:40.855Z,100578.31
2023-04-19T01:42:42.456Z,100578.33
2023-04-19T01:46:44.922Z,100579.33
2023-04-19T01:50:45.514Z,100579.96
2023-04-19T01:54:48.229Z,100577.33
2023-04-19T01:58:48.380Z,100581.65
2023-04-19T02:02:51.510Z,100579.47
2023-04-19T02:06:51.471Z,100569.88
2023-04-19T02:10:54.318Z,100565.76
2023-04-19T02:14:54.436Z,100561.60
2023-04-19T02:19:05.401Z,100559.43
2023-04-19T02:23:05.567Z,100547.73
2023-04-19T02:27:09.350Z,100537.26
2023-04-19T02:31:09.450Z,100538.84
2023-04-19T02:35:11.961Z,100540.85
2023-04-19T02:39:11.412Z,100545.59
2023-04-19T02:43:10.371Z,100539.64
2023-04-19T02:47:11.161Z,100537.63
2023-04-19T02:51:07.362Z,100542.40
2023-04-19T02:55:11.289Z,100544.11
2023-04-19T02:59:08.793Z,100542.79
2023-04-19T03:03:09.802Z,100546.98
2023-04-19T03:07:08.072Z,100556.52
2023-04-19T03:11:08.552Z,100552.17
2023-04-19T03:15:05.608Z,100556.26
2023-04-19T03:19:06.229Z,100558.90
2023-04-19T03:23:07.703Z,100558.47
2023-04-19T03:27:08.581Z,100555.54
2023-04-19T03:31:05.665Z,100555.27
2023-04-19T03:35:06.164Z,100553.45
2023-04-19T03:39:02.878Z,100554.23
2023-04-19T03:43:03.636Z,100554.66
2023-04-19T03:47:02.841Z,100549.04
2023-04-19T03:51:07.487Z,100547.84
2023-04-19T03:55:06.623Z,100548.10
2023-04-19T03:59:10.486Z,100552.36
2023-04-19T04:03:08.690Z,100550.66
2023-04-19T04:07:09.285Z,100546.64
2023-04-19T04:11:05.701Z,100544.05
2023-04-19T04:15:07.736Z,100534.55
2023-04-19T04:19:07.161Z,100532.30
2023-04-19T04:23:10.837Z,100531.58
2023-04-19T04:27:11.384Z,100541.67
2023-04-19T04:31:14.642Z,100536.52
2023-04-19T04:35:13.379Z,100533.27
2023-04-19T04:39:15.819Z,100531.48
2023-04-19T04:43:19.046Z,100530.66
2023-04-19T04:47:18.781Z,100530.17
2023-04-19T04:51:25.920Z,100528.30
2023-04-19T04:55:25.862Z,100524.87
2023-04-19T04:59:29.797Z,100530.36
2023-04-19T05:03:30.928Z,100528.54
2023-04-19T05:07:35.065Z,100525.32
2023-04-19T05:11:34.944Z,100526.57
2023-04-19T05:15:37.622Z,100525.95
2023-04-19T05:19:37.764Z,100520.23
2023-04-19T05:23:42.665Z,100514.39
2023-04-19T05:27:42.768Z,100517.92
2023-04-19T05:31:46.308Z,100505.59
2023-04-19T05:35:58.877Z,100502.39
2023-04-19T05:40:02.301Z,100499.49
2023-04-19T05:43:44.918Z,100496.39
2023-04-19T05:47:45.768Z,100496.14
2023-04-19T05:52:03.463Z,100481.61
2023-04-19T05:56:16.691Z,100483.80
2023-04-19T06:00:19.815Z,100475.72
2023-04-19T06:04:26.069Z,100478.52
2023-04-19T06:08:29.898Z,100479.36
2023-04-19T06:12:27.172Z,100484.07
2023-04-19T06:16:30.433Z,100485.29
2023-04-19T06:20:28.848Z,100489.73
2023-04-19T06:24:34.268Z,100489.27
2023-04-19T06:28:34.697Z,100485.81
2023-04-19T06:32:37.447Z,100486.10
2023-04-19T06:36:35.846Z,100479.36
2023-04-19T06:40:39.263Z,100478.52
2023-04-19T06:44:38.764Z,100475.58
2023-04-19T06:48:41.873Z,100475.34
2023-04-19T06:52:41.790Z,100480.54
2023-04-19T06:56:44.405Z,100479.86
2023-04-19T07:00:43.854Z,100478.40
2023-04-19T07:04:46.961Z,100479.45
2023-04-19T07:08:50.614Z,100479.39
2023-04-19T07:12:53.881Z,100479.16
2023-04-19T07:16:55.939Z,100480.45
2023-04-19T07:20:59.147Z,100481.23
2023-04-19T07:25:06.163Z,100486.23
2023-04-19T07:29:10.650Z,100485.34
2023-04-19T07:33:09.270Z,100492.75
2023-04-19T07:37:12.354Z,100498.85
2023-04-19T11:43:18.184Z,100486.96
2023-04-19T11:47:18.481Z,100489.44
2023-04-19T11:51:18.081Z,100488.68
2023-04-19T11:55:22.854Z,100487.59
2023-04-19T11:59:22.048Z,100489.48
2023-04-19T12:03:26.452Z,100486.35
2023-04-19T12:07:23.416Z,100486.16
2023-04-19T12:11:23.050Z,100486.00
2023-04-19T12:15:25.830Z,100486.39
2023-04-19T12:19:26.064Z,100484.96
2023-04-19T12:23:26.426Z,100486.90
2023-04-19T12:27:25.950Z,100486.83
2023-04-19T12:31:29.265Z,100488.40
2023-04-19T12:35:28.356Z,100487.83
2023-04-19T12:39:40.282Z,100488.36
2023-04-19T12:43:43.604Z,100493.52
2023-04-19T12:47:26.107Z,100495.44
2023-04-19T12:51:26.097Z,100491.71
2023-04-19T12:55:28.991Z,100489.59
2023-04-19T12:59:28.113Z,100489.81
2023-04-19T13:03:30.955Z,100490.27
2023-04-19T13:07:31.053Z,100488.88
2023-04-19T13:11:34.241Z,100488.64
2023-04-19T13:15:34.071Z,100483.44
2023-04-19T13:19:37.120Z,100484.01
2023-04-19T13:23:37.375Z,100485.86
2023-04-19T13:27:40.786Z,100482.02
2023-04-19T13:31:41.254Z,100481.77
2023-04-19T13:35:44.859Z,100484.14
2023-04-19T13:39:43.237Z,100481.21
2023-04-19T13:43:46.150Z,100479.33
2023-04-19T13:47:46.306Z,100484.20
2023-04-19T13:51:50.633Z,100489.69
2023-04-19T13:55:32.685Z,100492.82
2023-04-19T13:59:32.294Z,100500.73
2023-04-19T14:03:26.891Z,100508.49
2023-04-19T14:07:17.292Z,100512.52
2023-04-19T14:11:03.656Z,100523.01
2023-04-19T14:14:50.410Z,100520.91
2023-04-19T14:18:37.113Z,100520.46
2023-04-19T14:22:23.738Z,100528.42
2023-04-19T14:26:11.373Z,100534.36
2023-04-19T14:29:58.529Z,100532.71
2023-04-19T14:33:45.072Z,100531.33
2023-04-19T14:37:31.565Z,100532.84
2023-04-19T14:41:18.407Z,100535.83
2023-04-19T14:45:05.254Z,100539.90
2023-04-19T14:48:52.333Z,100532.69
2023-04-19T14:52:39.641Z,100534.59
2023-04-19T14:56:26.497Z,100528.44
2023-04-19T15:00:13.202Z,100530.21
2023-04-19T15:04:04.299Z,100528.52
2023-04-19T15:07:51.889Z,100535.50
2023-04-19T15:11:38.387Z,100532.67
2023-04-19T15:15:24.898Z,100532.40
2023-04-19T15:19:11.530Z,100528.95
2023-04-19T15:22:58.809Z,100530.70
2023-04-19T15:26:45.533Z,100534.18
2023-04-19T15:30:32.289Z,100526.19
2023-04-19T15:34:18.951Z,100524.14
2023-04-19T15:38:05.541Z,100527.54
2023-04-19T15:41:52.096Z,100521.93
2023-04-19T15:45:38.379Z,100524.80
2023-04-19T15:49:32.993Z,100521.17
2023-04-19T15:53:30.196Z,100520.83
2023-04-19T15:57:29.508Z,100522.46
2023-04-19T16:01:32.398Z,100520.41
2023-04-19T16:05:32.451Z,100513.11
2023-04-19T16:09:34.876Z,100511.05
2023-04-19T16:13:34.540Z,100508.01
2023-04-19T16:17:36.949Z,100508.44
2023-04-19T16:21:36.443Z,100509.80
2023-04-19T16:25:37.377Z,100505.00
2023-04-19T16:29:24.987Z,100499.95
2023-04-19T16:33:12.942Z,100503.00
2023-04-19T16:37:12.486Z,100502.55
2023-04-19T16:41:15.246Z,100506.64
2023-04-19T16:45:14.262Z,100509.81
2023-04-19T16:49:17.155Z,100512.05
2023-04-19T16:53:11.759Z,100522.15
2023-04-19T16:57:10.450Z,100521.14
2023-04-19T17:01:10.960Z,100524.79
2023-04-19T17:05:14.038Z,100528.75
2023-04-19T17:09:12.465Z,100537.87
2023-04-19T17:13:15.540Z,100537.36
2023-04-19T17:17:14.401Z,100543.94
2023-04-19T17:21:16.675Z,100548.10
2023-04-19T17:25:11.120Z,100552.82
2023-04-19T17:29:09.837Z,100558.02
2023-04-19T17:33:14.544Z,100556.38
2023-04-19T17:37:18.122Z,100563.01
2023-04-19T17:41:16.551Z,100563.14
2023-04-19T17:45:19.583Z,100563.12
2023-04-19T17:49:18.758Z,100564.36
2023-04-19T17:53:20.849Z,100562.81
2023-04-19T17:57:15.974Z,100567.09
2023-04-19T18:01:17.335Z,100574.70
2023-04-19T18:05:13.557Z,100574.30
2023-04-19T18:09:13.991Z,100572.98
2023-04-19T18:13:10.746Z,100576.80
2023-04-19T18:17:11.405Z,100573.06
2023-04-19T18:21:07.614Z,100576.15
2023-04-19T18:25:06.401Z,100573.61
2023-04-19T18:29:07.463Z,100577.13
2023-04-19T18:33:08.239Z,100578.29
2023-04-19T18:37:06.015Z,100576.27
2023-04-19T18:41:04.747Z,100570.91
2023-04-19T18:45:05.314Z,100572.70
2023-04-19T18:48:59.703Z,100564.39
2023-04-19T18:52:58.382Z,100563.89
2023-04-19T18:57:21.738Z,100563.19
2023-04-19T19:01:19.321Z,100560.11
2023-04-19T19:05:16.371Z,100558.16
2023-04-19T19:09:22.626Z,100553.31
2023-04-19T19:13:17.990Z,100549.23
2023-04-19T19:17:16.628Z,100550.31
2023-04-19T19:21:14.719Z,100546.83
2023-04-19T19:25:17.690Z,100542.80
2023-04-19T19:29:16.277Z,100542.16
2023-04-19T19:33:16.987Z,100541.58
2023-04-19T19:37:29.023Z,100537.09
2023-04-19T19:42:03.381Z,100532.68
2023-04-19T19:45:48.370Z,100528.70
2023-04-19T19:50:13.737Z,100521.23
2023-04-19T19:54:05.152Z,100515.09
2023-04-19T20:02:07.063Z,100514.62
2023-04-19T20:10:10.797Z,100512.23
2023-04-19T20:14:08.214Z,100510.14
2023-04-19T20:18:08.651Z,100506.55
2023-04-19T20:22:05.938Z,100510.44
2023-04-19T20:26:04.490Z,100506.06
2023-04-19T20:29:58.720Z,100503.70
2023-04-19T20:34:02.937Z,100504.58
2023-04-19T20:37:42.866Z,100505.30
2023-04-19T20:41:39.946Z,100500.92
2023-04-19T20:45:40.606Z,100496.60
2023-04-19T20:49:37.153Z,100495.34
2023-04-19T20:53:37.082Z,100495.55
2023-04-19T20:57:31.294Z,100494.71
2023-04-19T21:01:35.470Z,100491.52
2023-04-19T21:05:14.987Z,100485.40
2023-04-19T21:09:12.101Z,100485.05
2023-04-19T21:13:12.447Z,100483.73
2023-04-19T21:17:08.984Z,100479.33
2023-04-19T21:21:09.783Z,100482.52
2023-04-19T21:25:05.921Z,100477.48
2023-04-19T21:29:04.275Z,100471.91
2023-04-19T21:33:04.646Z,100466.70
2023-04-19T21:37:04.818Z,100464.05
2023-04-19T21:41:02.084Z,100458.86
2023-04-19T21:45:02.580Z,100453.51
2023-04-19T21:48:59.244Z,100457.02
2023-04-19T21:52:57.680Z,100451.92
2023-04-19T21:56:51.912Z,100446.00
2023-04-19T22:00:52.565Z,100441.80
2023-04-19T22:04:48.829Z,100443.39
2023-04-19T22:08:49.692Z,100434.09
2023-04-19T22:12:57.371Z,100434.04
2023-04-19T22:16:59.062Z,100424.86
2023-04-19T22:20:53.753Z,100422.29
2023-04-19T22:24:58.733Z,100420.02
2023-04-19T22:28:55.047Z,100414.27
2023-04-19T22:32:55.661Z,100416.19
2023-04-19T22:36:52.020Z,100411.48
2023-04-19T22:40:52.353Z,100409.58
2023-04-19T22:44:50.841Z,100408.38
2023-04-19T22:48:45.594Z,100400.19
2023-04-19T22:52:49.948Z,100400.45
2023-04-19T22:56:45.974Z,100390.70
2023-04-19T23:00:46.400Z,100393.78
2023-04-19T23:04:43.683Z,100389.27
2023-04-19T23:08:43.970Z,100390.66
2023-04-19T23:12:38.239Z,100392.34
2023-04-19T23:16:36.373Z,100390.30
2023-04-19T23:20:37.212Z,100386.58
2023-04-19T23:24:37.450Z,100380.75
2023-04-19T23:28:34.048Z,100377.67
2023-04-19T23:32:34.587Z,100375.65
2023-04-19T23:36:31.052Z,100373.85
2023-04-19T23:40:29.211Z,100369.13
2023-04-19T23:44:24.365Z,100367.98
2023-04-19T23:48:23.880Z,100369.14
2023-04-19T23:52:20.192Z,100364.66
2023-04-19T23:56:20.821Z,100363.61
